Time;durP1;ratioP1;P1;durP2;ratioP2;P2;SDS_P1;SDS_P2;PMS_P1;PMS_P2;Temp;Humidity;BMP_temperature;BMP_pressure;BME280_temperature;BME280_humidity;BME280_pressure;Samples;Min_cycle;Max_cycle;Signal;HPM_P1;HPM_P2
2022/03/18 07:59:00;;;;;;;13.45;8.05;;;;;;;6.71;77.94;104127.41;5218160;28;20399;-68
2022/03/18 08:01:31;;;;;;;12.05;8.85;;;;;;;6.67;76.09;104131.59;5216783;28;20032;-69
2022/03/18 08:04:02;;;;;;;15.10;7.93;;;;;;;7.08;77.43;104128.50;5217607;28;20404;-70
2022/03/18 08:06:34;;;;;;;14.55;7.47;;;;;;;6.88;73.33;104133.69;5218088;28;20037;-69
2022/03/18 08:09:05;;;;;;;11.32;7.50;;;;;;;6.96;73.39;104135.50;5217279;28;20061;-69
2022/03/18 08:11:37;;;;;;;11.98;7.78;;;;;;;7.20;74.08;104134.41;5218298;28;20029;-71
2022/03/18 08:14:08;;;;;;;14.80;6.75;;;;;;;7.29;74.01;104138.84;5217808;28;20033;-70
2022/03/18 08:16:39;;;;;;;16.77;7.45;;;;;;;7.40;74.06;104132.84;5216273;28;20034;-71
2022/03/18 08:19:11;;;;;;;9.60;5.93;;;;;;;7.21;70.85;104138.03;5217720;28;20084;-70
2022/03/18 08:21:49;;;;;;;10.43;6.40;;;;;;;7.35;70.28;104148.25;5217006;28;20051;-70
2022/03/18 08:24:20;;;;;;;15.63;7.75;;;;;;;7.31;68.83;104156.06;5217891;28;20053;-70
2022/03/18 08:26:51;;;;;;;12.30;6.72;;;;;;;7.41;69.26;104144.75;5217797;28;20477;-70
2022/03/18 08:29:23;;;;;;;13.30;6.10;;;;;;;7.39;68.36;104153.22;5217052;28;20058;-73
2022/03/18 08:31:54;;;;;;;12.10;6.72;;;;;;;7.47;68.88;104149.53;5217937;28;20034;-69
2022/03/18 08:34:25;;;;;;;10.50;6.60;;;;;;;7.49;67.12;104150.22;5206956;28;20098;-70
2022/03/18 08:36:56;;;;;;;16.65;6.63;;;;;;;7.58;67.09;104150.97;5196395;28;20034;-70
2022/03/18 08:39:28;;;;;;;13.07;6.07;;;;;;;7.68;66.67;104158.97;5196987;28;20030;-70
2022/03/18 08:41:59;;;;;;;13.95;6.55;;;;;;;7.78;67.08;104160.41;5197242;28;20035;-70
2022/03/18 08:44:31;;;;;;;11.13;5.65;;;;;;;7.78;66.00;104168.69;5196414;28;20135;-70
2022/03/18 08:47:02;;;;;;;11.10;5.72;;;;;;;7.89;65.62;104169.28;5197025;28;20026;-69
2022/03/18 08:49:34;;;;;;;15.35;6.10;;;;;;;7.90;65.01;104168.22;5196853;28;20034;-70
2022/03/18 08:52:05;;;;;;;15.52;5.93;;;;;;;7.90;64.94;104176.50;5196227;28;20030;-69
2022/03/18 08:54:36;;;;;;;11.93;6.30;;;;;;;8.06;65.49;104182.69;5196820;28;20034;-71
2022/03/18 08:57:08;;;;;;;16.48;6.75;;;;;;;8.03;64.11;104183.09;5195713;28;20048;-71
2022/03/18 08:59:39;;;;;;;9.82;5.82;;;;;;;8.60;68.29;104197.25;5196953;28;20026;-71
2022/03/18 09:02:11;;;;;;;13.73;7.28;;;;;;;8.53;64.52;104196.31;5196699;28;20026;-71
2022/03/18 09:04:43;;;;;;;10.63;7.28;;;;;;;8.44;62.91;104193.66;5215652;28;20026;-70
2022/03/18 09:07:14;;;;;;;10.40;5.22;;;;;;;8.61;62.21;104199.81;5216286;28;20064;-70
2022/03/18 09:09:45;;;;;;;12.05;6.10;;;;;;;8.52;60.30;104198.22;5186977;28;20482;-71
2022/03/18 09:12:18;;;;;;;10.63;6.03;;;;;;;8.82;63.95;104198.13;5182502;28;20019;-72
2022/03/18 09:14:50;;;;;;;6.72;4.53;;;;;;;9.10;64.80;104200.97;5195855;28;20393;-70
2022/03/18 09:17:21;;;;;;;9.85;5.22;;;;;;;9.11;63.30;104195.25;5203276;28;20081;-72
2022/03/18 09:19:53;;;;;;;9.82;5.47;;;;;;;9.35;62.95;104204.19;5201882;28;20038;-71
2022/03/18 09:22:27;;;;;;;12.23;5.97;;;;;;;9.18;59.28;104203.63;5203253;28;20465;-73
2022/03/18 09:24:59;;;;;;;8.20;5.03;;;;;;;9.50;62.17;104204.94;5194853;28;20470;-71
2022/03/18 09:27:30;;;;;;;7.35;4.32;;;;;;;9.50;62.07;104207.72;5182692;28;20114;-73
2022/03/18 09:30:03;;;;;;;8.68;5.22;;;;;;;9.34;58.71;104208.88;5182513;28;20023;-73
2022/03/18 09:32:34;;;;;;;10.38;4.43;;;;;;;9.38;55.92;104212.09;5181937;28;20030;-71
2022/03/18 09:35:07;;;;;;;5.85;4.03;;;;;;;9.48;57.57;104211.75;5182109;28;20034;-72
2022/03/18 09:37:38;;;;;;;9.25;4.68;;;;;;;9.60;58.98;104215.69;5182219;28;20047;-72
2022/03/18 09:40:11;;;;;;;7.47;4.35;;;;;;;9.77;57.82;104219.88;5181311;28;20038;-70
2022/03/18 09:42:58;;;;;;;7.05;4.47;;;;;;;9.85;57.97;104218.88;5195447;28;20113;-71
2022/03/18 09:45:33;;;;;;;12.32;4.78;;;;;;;9.92;56.77;104214.22;5202647;28;20053;-71
2022/03/18 09:48:07;;;;;;;10.15;4.78;;;;;;;9.82;55.29;104215.63;5201958;28;20027;-73
2022/03/18 09:50:40;;;;;;;7.00;3.90;;;;;;;9.86;54.94;104216.94;5202448;28;20060;-73
2022/03/18 09:53:11;;;;;;;9.20;4.57;;;;;;;9.98;56.34;104218.09;5201563;28;20129;-72
2022/03/18 09:55:42;;;;;;;6.47;3.78;;;;;;;10.00;54.20;104221.53;5202140;28;20101;-72
2022/03/18 09:58:14;;;;;;;10.63;3.97;;;;;;;10.14;55.84;104225.22;5201102;28;20046;-72
2022/03/18 10:00:46;;;;;;;10.77;3.97;;;;;;;10.31;53.52;104220.25;5201503;28;20034;-74
2022/03/18 10:03:19;;;;;;;10.50;4.20;;;;;;;10.40;54.56;104218.97;5201957;28;20026;-74
2022/03/18 10:05:59;;;;;;;20.27;5.15;;;;;;;10.43;56.62;104238.88;5202109;28;20027;-75
2022/03/18 10:08:33;;;;;;;16.55;5.63;;;;;;;10.55;55.68;104239.13;5201103;28;20046;-73
2022/03/18 10:11:30;;;;;;;9.95;4.38;;;;;;;10.59;51.36;104229.31;5200455;28;20509;-72
2022/03/18 10:14:07;;;;;;;6.70;3.42;;;;;;;10.49;48.22;104239.97;5182001;28;20027;-71
2022/03/18 10:16:40;;;;;;;8.90;3.33;;;;;;;10.59;49.59;104239.56;5193381;28;20038;-71
2022/03/18 10:19:21;;;;;;;10.07;4.68;;;;;;;10.73;54.60;104238.53;5201734;28;20030;-71
2022/03/18 10:22:05;;;;;;;9.05;3.83;;;;;;;10.80;52.59;104242.19;5198697;28;20109;-71
2022/03/18 10:24:38;;;;;;;13.50;4.65;;;;;;;11.16;59.35;104242.94;5185761;28;20486;-72
2022/03/18 10:27:14;;;;;;;6.72;3.13;;;;;;;10.97;53.50;104237.13;5196389;28;20030;-72
2022/03/18 10:29:49;;;;;;;;;;;;;;;11.05;57.71;104233.31;5201267;28;20500;-72
2022/03/18 10:32:23;;;;;;;10.57;4.53;;;;;;;10.98;52.99;104241.63;5199367;28;19933;-72
2022/03/18 10:37:50;;;;;;;10.00;3.65;;;;;;;11.10;55.04;104231.59;5189468;28;20042;-71
2022/03/18 10:40:34;;;;;;;7.53;3.70;;;;;;;11.12;51.49;104242.50;5201415;28;20034;-72
2022/03/18 10:43:07;;;;;;;8.38;3.30;;;;;;;11.12;50.41;104238.84;5189235;28;20174;-71
2022/03/18 10:45:38;;;;;;;3.72;2.80;;;;;;;11.20;48.84;104241.47;5188764;28;20113;-72
2022/03/18 10:48:15;;;;;;;11.13;5.47;;;;;;;11.26;49.80;104241.44;5190675;28;20113;-71
2022/03/18 10:51:00;;;;;;;7.43;3.00;;;;;;;11.21;50.17;104244.00;5186868;28;20039;-70
2022/03/18 10:53:33;;;;;;;6.57;2.58;;;;;;;11.34;53.01;104242.31;5198219;28;20034;-70
2022/03/18 10:56:04;;;;;;;10.30;3.67;;;;;;;11.57;54.65;104241.91;5201219;28;20025;-72
2022/03/18 10:58:36;;;;;;;7.25;3.33;;;;;;;11.39;49.12;104237.81;5200031;28;20046;-74
2022/03/18 11:01:07;;;;;;;7.43;3.13;;;;;;;11.52;50.95;104236.97;5200586;28;20552;-73
2022/03/18 11:03:40;;;;;;;14.38;4.13;;;;;;;11.60;49.38;104230.34;5200337;28;20057;-74
2022/03/18 11:06:13;;;;;;;7.82;2.90;;;;;;;11.73;51.36;104236.78;5200130;28;20052;-74
2022/03/18 11:08:46;;;;;;;5.13;3.38;;;;;;;11.71;48.83;104235.28;5180786;28;20034;-76
2022/03/18 11:11:22;;;;;;;13.07;10.57;;;;;;;11.66;50.72;104230.34;5180369;28;20030;-74
2022/03/18 11:14:01;;;;;;;6.72;3.65;;;;;;;11.82;48.42;104225.41;5181815;28;20023;-74
2022/03/18 11:16:36;;;;;;;6.43;2.78;;;;;;;11.81;50.24;104226.47;5180415;28;20467;-76
2022/03/18 11:19:12;;;;;;;5.57;2.47;;;;;;;11.86;50.38;104230.38;5179970;28;20027;-75
2022/03/18 11:21:45;;;;;;;6.88;2.88;;;;;;;11.96;48.04;104230.78;5180375;28;20031;-75
2022/03/18 11:24:22;;;;;;;5.97;3.25;;;;;;;12.06;47.26;104213.63;5181024;28;20077;-75
2022/03/18 11:26:56;;;;;;;5.95;3.45;;;;;;;12.16;46.21;104219.59;5181993;28;20031;-74
2022/03/18 11:29:29;;;;;;;6.30;3.10;;;;;;;12.08;46.73;104221.75;5200217;28;20030;-74
2022/03/18 11:32:09;;;;;;;6.82;4.10;;;;;;;12.16;47.20;104224.31;5197902;28;20054;-74
2022/03/18 11:34:57;;;;;;;9.95;3.42;;;;;;;12.26;47.26;104229.41;5180381;28;20033;-74
2022/03/18 11:37:31;;;;;;;19.60;14.82;;;;;;;12.32;47.66;104225.75;5198647;28;20034;-76
2022/03/18 11:40:23;;;;;;;6.38;3.45;;;;;;;12.35;47.93;104225.34;5199305;28;20085;-73
2022/03/18 11:42:55;;;;;;;10.15;6.05;;;;;;;12.42;48.18;104223.34;5179923;28;20110;-74
2022/03/18 11:45:34;;;;;;;8.45;3.17;;;;;;;12.48;46.57;104222.50;5180062;28;20031;-73
2022/03/18 11:48:37;;;;;;;8.65;3.50;;;;;;;12.57;47.16;104217.50;5187519;28;20052;-73
2022/03/18 11:51:30;;;;;;;9.07;4.10;;;;;;;12.61;46.43;104221.56;5187706;28;20030;-73
2022/03/18 11:54:13;;;;;;;8.65;3.42;;;;;;;12.63;47.47;104225.00;5189820;28;20138;-73
2022/03/18 11:56:52;;;;;;;5.53;3.38;;;;;;;12.66;46.91;104220.91;5180359;28;20030;-74
2022/03/18 11:59:29;;;;;;;7.93;4.43;;;;;;;12.70;46.36;104223.00;5183590;28;20018;-73
2022/03/18 12:02:09;;;;;;;7.10;3.72;;;;;;;12.78;47.80;104222.78;5188422;28;20533;-72
2022/03/18 12:04:47;;;;;;;7.72;4.25;;;;;;;12.81;46.55;104216.75;5189372;28;20023;-73
2022/03/18 12:07:30;;;;;;;4.82;3.42;;;;;;;12.86;46.52;104216.09;5198269;28;20448;-72
2022/03/18 12:10:09;;;;;;;7.45;3.97;;;;;;;13.05;46.08;104201.16;5200114;28;20105;-73
2022/03/18 12:12:42;;;;;;;9.95;3.97;;;;;;;13.01;45.50;104208.28;5200318;28;20038;-73
2022/03/18 12:15:19;;;;;;;11.70;7.20;;;;;;;13.12;45.98;104206.69;5190560;28;20054;-73
2022/03/18 12:17:52;;;;;;;7.65;3.40;;;;;;;13.22;46.04;104200.63;5184106;28;20062;-73
2022/03/18 12:20:26;;;;;;;6.50;3.63;;;;;;;13.38;45.74;104207.59;5201322;28;20037;-72
2022/03/18 12:23:00;;;;;;;6.65;3.90;;;;;;;13.34;45.15;104203.56;5199659;28;20018;-73
2022/03/18 12:25:33;;;;;;;8.68;5.30;;;;;;;13.49;45.71;104196.53;5200223;28;20102;-72
2022/03/18 12:28:06;;;;;;;6.25;4.53;;;;;;;13.48;45.27;104203.22;5197264;28;20096;-72
2022/03/18 12:30:37;;;;;;;10.18;5.88;;;;;;;13.55;45.64;104203.16;5182966;28;20035;-72
2022/03/18 12:33:08;;;;;;;13.18;11.07;;;;;;;13.69;45.34;104201.94;5180716;28;20054;-73
2022/03/18 12:35:43;;;;;;;9.88;4.10;;;;;;;13.85;45.01;104210.81;5182663;28;20030;-73
2022/03/18 12:38:16;;;;;;;7.43;3.50;;;;;;;13.78;46.94;104199.72;5194079;28;20041;-72
2022/03/18 12:40:56;;;;;;;9.23;3.50;;;;;;;13.89;45.20;104196.16;5192475;28;20466;-71
2022/03/18 12:43:31;;;;;;;9.10;3.72;;;;;;;13.82;45.82;104198.16;5198762;28;20500;-71
2022/03/18 12:46:04;;;;;;;;;;;;;;;14.09;45.24;104197.91;5204658;28;20106;-72
2022/03/18 12:48:35;;;;;;;5.70;3.60;;;;;;;14.04;44.36;104192.16;5199562;28;19922;-71
2022/03/18 12:51:06;;;;;;;6.32;3.38;;;;;;;14.31;44.46;104187.94;5182641;28;20046;-74
2022/03/18 12:53:38;;;;;;;7.15;3.30;;;;;;;14.33;43.03;104190.50;5199790;28;20049;-76
2022/03/18 12:56:16;;;;;;;6.63;3.70;;;;;;;14.48;43.59;104190.97;5202810;28;20030;-73
2022/03/18 12:58:47;;;;;;;6.38;3.55;;;;;;;14.47;43.87;104180.00;5201510;28;20397;-74
2022/03/18 13:01:18;;;;;;;5.32;3.30;;;;;;;14.62;43.78;104172.09;5186832;28;20026;-73
2022/03/18 13:03:51;;;;;;;6.50;3.60;;;;;;;14.70;42.71;104180.16;5202557;28;20466;-73
2022/03/18 13:06:24;;;;;;;5.57;2.95;;;;;;;14.79;42.85;104178.72;5201024;28;20023;-75
2022/03/18 13:09:08;;;;;;;6.97;3.95;;;;;;;14.88;43.32;104181.19;5203259;28;20022;-71
2022/03/18 13:11:41;;;;;;;8.38;4.18;;;;;;;14.93;41.78;104181.31;5202720;28;20037;-73
2022/03/18 13:14:12;;;;;;;5.18;3.63;;;;;;;15.10;41.29;104179.53;5203652;28;20550;-72
2022/03/18 13:16:44;;;;;;;5.72;3.05;;;;;;;15.10;41.23;104167.53;5201989;28;20105;-72
2022/03/18 13:19:16;;;;;;;10.75;3.92;;;;;;;15.20;41.74;104163.03;5202341;28;20034;-74
2022/03/18 13:21:47;;;;;;;5.40;3.50;;;;;;;15.26;40.89;104169.59;5191810;28;20054;-74
2022/03/18 13:24:18;;;;;;;8.75;3.00;;;;;;;15.19;40.77;104161.34;5187830;28;20038;-73
2022/03/18 13:26:50;;;;;;;7.50;3.50;;;;;;;15.44;40.86;104168.66;5204757;28;20026;-71
2022/03/18 13:32:50;;;;;;;7.35;3.60;;;;;;;15.36;40.53;104163.41;5200271;28;20034;-71
2022/03/18 13:35:12;;;;;;;7.07;3.75;;;;;;;15.66;40.94;104155.75;5183056;28;20390;-71
2022/03/18 13:38:07;;;;;;;6.15;3.72;;;;;;;15.83;40.29;104157.88;5184082;28;20039;-72
2022/03/18 13:40:40;;;;;;;5.20;3.50;;;;;;;15.65;40.03;104150.44;5182709;28;20110;-71
2022/03/18 13:43:11;;;;;;;7.28;4.28;;;;;;;15.59;39.55;104148.59;5182254;28;20023;-73
2022/03/18 13:45:42;;;;;;;8.95;3.78;;;;;;;15.78;40.29;104138.16;5182508;28;20038;-73
2022/03/18 13:48:27;;;;;;;9.63;3.70;;;;;;;15.85;39.67;104145.34;5201942;28;20038;-72
2022/03/18 13:50:59;;;;;;;12.70;4.72;;;;;;;15.88;39.41;104140.34;5193233;28;20046;-68
2022/03/18 13:53:31;;;;;;;7.68;5.63;;;;;;;15.95;39.70;104138.25;5201815;28;20026;-69
2022/03/18 13:56:17;;;;;;;9.90;7.68;;;;;;;16.05;39.95;104142.13;5202110;28;20030;-69
2022/03/18 13:58:48;;;;;;;;;;;;;;;16.30;40.57;104147.38;5197732;28;20050;-69
2022/03/18 14:01:19;;;;;;;8.27;4.40;;;;;;;15.96;39.00;104146.41;5201494;28;20376;-69
2022/03/18 14:04:00;;;;;;;5.82;3.22;;;;;;;15.90;40.54;104147.41;5201760;28;20050;-70
2022/03/18 14:06:59;;;;;;;12.60;4.55;;;;;;;16.13;40.37;104145.63;5184229;28;20073;-71
2022/03/18 14:09:30;;;;;;;7.90;3.90;;;;;;;16.03;40.77;104135.94;5180766;28;20382;-71
2022/03/18 14:12:12;;;;;;;12.43;6.40;;;;;;;16.22;40.25;104141.34;5181036;28;20011;-71
2022/03/18 14:14:47;;;;;;;6.70;3.60;;;;;;;16.02;39.39;104141.75;5186038;28;20034;-70
2022/03/18 14:17:20;;;;;;;5.78;3.75;;;;;;;15.97;39.59;104139.69;5181688;28;20023;-70
2022/03/18 14:20:08;;;;;;;5.20;3.40;;;;;;;16.16;40.70;104142.34;5184753;28;20030;-70
2022/03/18 14:22:41;;;;;;;6.00;3.90;;;;;;;16.20;40.53;104137.94;5180668;28;20470;-71
2022/03/18 14:25:15;;;;;;;8.07;3.30;;;;;;;16.12;40.03;104135.53;5190145;28;20022;-70
2022/03/18 14:27:48;;;;;;;6.32;3.75;;;;;;;16.15;39.73;104141.47;5200960;28;20034;-67
2022/03/18 14:30:27;;;;;;;9.70;3.47;;;;;;;16.04;40.03;104132.00;5199397;28;20022;-71
2022/03/18 14:33:01;;;;;;;9.50;4.00;;;;;;;16.11;40.75;104131.03;5181473;28;20386;-69
2022/03/18 14:35:32;;;;;;;6.90;3.40;;;;;;;16.18;40.52;104123.31;5180468;28;20057;-70
2022/03/18 14:38:04;;;;;;;6.78;3.75;;;;;;;16.10;40.00;104116.16;5195478;28;20031;-70
2022/03/18 14:40:35;;;;;;;9.05;4.25;;;;;;;16.19;39.36;104109.09;5201188;28;20026;-70
2022/03/18 14:43:07;;;;;;;7.88;4.00;;;;;;;16.22;40.15;104117.00;5195139;28;20046;-71
2022/03/18 14:45:40;;;;;;;6.82;4.22;;;;;;;16.29;40.09;104116.84;5180776;28;20022;-73
2022/03/18 14:48:11;;;;;;;5.43;3.40;;;;;;;16.27;40.34;104116.25;5190870;28;20062;-72
2022/03/18 14:50:43;;;;;;;7.80;3.97;;;;;;;16.22;39.70;104110.53;5197733;28;20548;-70
2022/03/18 14:53:16;;;;;;;7.40;3.72;;;;;;;16.33;39.60;104115.25;5195640;28;20493;-72
2022/03/18 14:58:38;;;;;;;11.82;3.72;;;;;;;16.38;39.58;104106.09;5191573;28;20046;-73
2022/03/18 15:01:09;;;;;;;5.32;3.22;;;;;;;16.33;39.52;104112.44;5196637;28;20470;-71
2022/03/18 15:03:41;;;;;;;11.85;5.47;;;;;;;16.20;39.15;104110.78;5198543;28;20033;-76
2022/03/18 15:06:12;;;;;;;6.82;3.60;;;;;;;16.21;39.65;104111.66;5183528;28;20427;-69
2022/03/18 15:08:45;;;;;;;6.75;3.30;;;;;;;16.37;40.49;104101.59;5181126;28;20035;-70
2022/03/18 15:11:16;;;;;;;7.80;3.92;;;;;;;16.36;39.29;104100.75;5179816;28;20023;-74
2022/03/18 15:13:48;;;;;;;7.35;3.60;;;;;;;16.64;39.70;104087.81;5180633;28;20027;-72
2022/03/18 15:16:20;;;;;;;7.32;3.85;;;;;;;16.58;39.55;104088.81;5180650;28;20038;-70
2022/03/18 15:18:51;;;;;;;9.98;4.45;;;;;;;16.49;40.49;104096.81;5179578;28;20561;-70
2022/03/18 15:21:23;;;;;;;5.40;3.40;;;;;;;16.79;40.84;104095.66;5180873;28;20030;-70
2022/03/18 15:23:58;;;;;;;5.97;3.33;;;;;;;16.80;39.70;104097.38;5194095;28;20027;-71
2022/03/18 15:26:29;;;;;;;9.00;3.70;;;;;;;16.31;38.95;104103.47;5190426;28;20428;-69
2022/03/18 15:29:00;;;;;;;7.40;3.20;;;;;;;16.56;39.52;104107.84;5200524;28;20026;-69
2022/03/18 15:31:32;;;;;;;7.75;3.80;;;;;;;16.56;39.03;104105.03;5181745;28;20035;-69
2022/03/18 15:34:06;;;;;;;4.82;3.05;;;;;;;16.57;39.46;104103.94;5180243;28;20019;-70
2022/03/18 15:36:37;;;;;;;6.15;3.33;;;;;;;16.64;39.90;104093.41;5180348;28;20035;-70
2022/03/18 15:39:08;;;;;;;9.10;3.67;;;;;;;16.48;39.46;104098.72;5187284;28;20085;-70
2022/03/18 15:41:40;;;;;;;6.03;3.30;;;;;;;16.38;39.46;104094.88;5180424;28;20073;-70
2022/03/18 15:44:12;;;;;;;10.65;3.78;;;;;;;16.15;39.83;104101.44;5180001;28;20101;-70
2022/03/18 15:46:44;;;;;;;6.68;3.45;;;;;;;16.24;40.61;104099.94;5179501;28;20034;-69
2022/03/18 15:49:16;;;;;;;4.95;3.13;;;;;;;16.15;40.12;104091.06;5179835;28;20030;-69
2022/03/18 15:51:47;;;;;;;6.00;3.72;;;;;;;16.08;39.02;104102.44;5179849;28;20483;-70
2022/03/18 15:54:18;;;;;;;4.38;3.45;;;;;;;16.20;40.42;104099.56;5200335;28;20100;-69
2022/03/18 15:56:51;;;;;;;6.80;3.85;;;;;;;16.25;39.99;104101.63;5194463;28;20047;-71
2022/03/18 15:59:23;;;;;;;9.90;3.58;;;;;;;16.25;41.65;104096.88;5198366;28;20034;-70
2022/03/18 16:01:54;;;;;;;7.45;3.80;;;;;;;16.00;40.17;104099.16;5179901;28;20027;-71
2022/03/18 16:04:26;;;;;;;7.95;4.13;;;;;;;16.02;41.92;104096.97;5182966;28;20039;-70
2022/03/18 16:06:58;;;;;;;7.88;3.03;;;;;;;16.03;41.70;104096.72;5181279;28;20038;-70
2022/03/18 16:09:32;;;;;;;6.95;3.47;;;;;;;16.16;40.42;104087.19;5197737;28;20100;-70
2022/03/18 16:12:05;;;;;;;7.40;3.20;;;;;;;15.95;39.66;104101.84;5199725;28;20110;-68
2022/03/18 16:14:37;;;;;;;7.95;2.88;;;;;;;15.91;40.00;104100.66;5198792;28;20026;-72
2022/03/18 16:17:10;;;;;;;11.18;3.55;;;;;;;15.63;40.21;104086.31;5190378;28;20023;-70
2022/03/18 16:19:42;;;;;;;6.22;4.30;;;;;;;15.65;43.40;104091.69;5181595;28;20390;-70
2022/03/18 16:22:29;;;;;;;7.35;5.00;;;;;;;15.73;43.09;104093.28;5183145;28;20038;-70
2022/03/18 16:25:06;;;;;;;6.32;3.70;;;;;;;15.52;41.08;104095.59;5201125;28;20031;-67
2022/03/18 16:27:41;;;;;;;14.80;12.32;;;;;;;15.48;42.13;104097.16;5201149;28;20053;-69
2022/03/18 16:30:14;;;;;;;5.70;4.07;;;;;;;15.40;41.27;104094.72;5194707;28;20382;-70
2022/03/18 16:32:45;;;;;;;3.45;2.67;;;;;;;15.40;42.05;104100.31;5184027;28;20030;-70
2022/03/18 16:35:18;;;;;;;5.55;2.63;;;;;;;15.26;42.59;104098.84;5182858;28;20041;-71
2022/03/18 16:37:52;;;;;;;4.25;3.42;;;;;;;14.94;41.56;104097.25;5185759;28;20041;-70
2022/03/18 16:40:24;;;;;;;8.55;6.88;;;;;;;14.98;42.30;104092.03;5183057;28;20023;-70
2022/03/18 16:42:56;;;;;;;5.25;3.40;;;;;;;14.74;41.90;104097.56;5182787;28;20478;-70
2022/03/18 16:49:23;;;;;;;6.88;3.70;;;;;;;14.64;42.78;104099.25;5183520;28;20027;-68
2022/03/18 16:51:14;;;;;;;5.75;3.25;;;;;;;14.44;42.98;104099.50;5183047;28;20039;-69
2022/03/18 16:53:45;;;;;;;9.95;4.40;;;;;;;14.43;43.66;104104.25;5192948;28;20039;-69
2022/03/18 16:56:19;;;;;;;5.50;3.30;;;;;;;14.39;43.65;104108.59;5192185;28;20027;-71
2022/03/18 16:58:50;;;;;;;6.25;3.38;;;;;;;14.43;44.61;104108.97;5200311;28;20061;-70
2022/03/18 17:01:45;;;;;;;10.32;7.32;;;;;;;14.30;44.07;104108.06;5197283;28;20023;-70
2022/03/18 17:04:13;;;;;;;11.50;3.97;;;;;;;14.29;44.93;104109.19;5190366;28;20047;-69
2022/03/18 17:06:44;;;;;;;6.75;3.67;;;;;;;14.31;45.23;104115.34;5195934;28;20549;-70
2022/03/18 17:09:16;;;;;;;12.95;11.70;;;;;;;14.20;44.74;104115.31;5202309;28;20149;-69
2022/03/18 17:11:47;;;;;;;8.27;5.07;;;;;;;14.00;44.54;104122.00;5203086;28;20026;-70
2022/03/18 17:14:19;;;;;;;9.63;7.53;;;;;;;14.05;44.43;104122.13;5199225;28;20109;-69
2022/03/18 17:16:51;;;;;;;17.50;14.40;;;;;;;14.08;45.69;104120.81;5189722;28;20026;-70
2022/03/18 17:19:22;;;;;;;19.98;17.33;;;;;;;13.99;44.99;104125.03;5203040;28;20362;-71
2022/03/18 17:21:53;;;;;;;7.68;4.90;;;;;;;13.95;45.69;104129.38;5192784;28;20042;-69
2022/03/18 17:24:25;;;;;;;4.60;3.60;;;;;;;13.80;45.24;104135.31;5199466;28;20034;-70
2022/03/18 17:26:57;;;;;;;16.10;11.68;;;;;;;13.78;45.87;104132.78;5203253;28;20037;-71
2022/03/18 17:29:28;;;;;;;10.43;7.00;;;;;;;13.76;45.52;104140.53;5188998;28;20501;-69
